West Branch, MI

1:15 PM EDT on July 01, 2015 (GMT -0400)
MesoWest | | Change Station
CLOSE
Current Station
Personal Weather Station
Location: West Branch, MI
Elevation: 977 ft
Nearby Weather Stations

Elev 977 ft 44.25 °N, 84.23 °W | Updated 30 minutes ago

Overcast
Overcast
62 °F
Feels Like 62 °F
N
6
Wind Variable Wind from NNW
Gusts 11.0 mph

Today
High -- | Low -- °F
--% Chance of Precip.
Yesterday
High -- | Low -- °F
Precip. -- in
5:56 AM 9:24 PM
Full, 100% visible
Pressure 29.95 in
Visibility 10.0 miles
Clouds Overcast 1100 ft
Dew Point 57 °F
Humidity 84%
Rainfall in
Snow Depth Not available.
UV 3 out of 12
Pollen 3.90 out of 12
Air Quality Not available.
Flu Activity Not available.
METAR KHTL 011653Z AUTO VRB05KT 10SM OVC011 14/11 A2994 RMK AO2 SLP141 T01440111

More Conditions Fewer Conditions

Pressure 29.95 in
Visibility 10.0 miles
Clouds Overcast 1100 ft
Dew Point 57 °F
Humidity 84%
Rainfall in
Snow Depth Not available.
UV 3 out of 12
Pollen 3.90 out of 12
Air Quality Not available.
Flu Activity Not available.
METAR KHTL 011653Z AUTO VRB05KT 10SM OVC011 14/11 A2994 RMK AO2 SLP141 T01440111

More Conditions Fewer Conditions

Nowcast | as of 1:00 PM EDT on July 1, 2015

At 2 PM...cloudy. Temperature 65. Northwest winds 9 mph. At 4 PM...cloudy. Temperature 68. Northwest winds 9 mph. At 6 PM...cloudy. Temperature 68. North winds 8 mph. At 8 PM...mostly cloudy. Temperature 65. North winds 6 mph.

×

10-Day Weather Forecast

×

Almanac

Astronomy

Jul. 01, 2015 Rise Set
Actual Time
Civil Twilight
Nautical Twilight
Astronomical Twilight
Moon
Length of Visible Light
Length of Day
Tomorrow will be .
, % of the Moon is Illuminated

Today's Extremes

State Highs State Lows

Community

WunderPhotos

Upload Photos

1,834,248 photos uploaded!

WunderBlogs® & News

Nearby

Air Quality

  Air Quality AQ Index Pollutant
Not available.

Snow Depth

Station Depth Elevation

Earthquake Activity

City Distance Mag. Time & Date
Minimum magnitude displayed is 2.5.

Coastal Water Temperatures

Place Temperature

Stations

Nearby Weather Stations

Station Location Temp. Windchill Dew Point Humidity Wind Precip. Elev Updated Type